createdAt,value
2019-02-02T00:00:42.676Z,12.37
2019-02-02T00:03:10.683Z,12.40
2019-02-02T00:05:37.099Z,12.50
2019-02-02T00:08:04.743Z,12.47
2019-02-02T00:10:31.161Z,12.37
2019-02-02T00:12:57.608Z,12.00
2019-02-02T00:15:24.308Z,12.93
2019-02-02T00:17:50.724Z,11.70
2019-02-02T00:20:17.171Z,11.97
2019-02-02T00:22:43.583Z,12.30
2019-02-02T00:25:10.027Z,12.03
2019-02-02T00:27:41.468Z,11.70
2019-02-02T00:30:09.696Z,11.80
2019-02-02T00:32:36.111Z,10.70
2019-02-02T00:35:03.892Z,9.80
2019-02-02T00:37:30.600Z,10.70
2019-02-02T00:39:57.337Z,10.93
2019-02-02T00:42:23.752Z,10.93
2019-02-02T00:44:50.202Z,11.10
2019-02-02T00:47:16.616Z,10.60
2019-02-02T00:49:43.371Z,10.20
2019-02-02T00:52:09.815Z,11.10
2019-02-02T00:54:36.269Z,10.63
2019-02-02T00:57:02.977Z,9.70
2019-02-02T00:59:29.716Z,9.67
2019-02-02T01:01:56.455Z,9.77
2019-02-02T01:04:22.864Z,10.40
2019-02-02T01:06:49.521Z,9.80
2019-02-02T01:09:17.869Z,10.90
2019-02-02T01:11:44.536Z,9.77
2019-02-02T01:14:10.947Z,10.63
2019-02-02T01:16:37.715Z,9.67
2019-02-02T01:19:04.119Z,9.20
2019-02-02T01:21:31.704Z,9.60
2019-02-02T01:23:58.436Z,10.30
2019-02-02T01:26:24.851Z,9.33
2019-02-02T01:28:51.267Z,9.33
2019-02-02T01:31:18.044Z,8.93
2019-02-02T01:33:44.458Z,9.10
2019-02-02T01:36:10.933Z,9.53
2019-02-02T01:38:37.343Z,9.17
2019-02-02T01:41:03.755Z,9.47
2019-02-02T01:43:30.205Z,9.70
2019-02-02T01:45:56.632Z,9.23
2019-02-02T01:48:23.118Z,8.50
2019-02-02T01:50:49.531Z,9.10
2019-02-02T01:53:16.246Z,9.07
2019-02-02T01:55:42.687Z,8.83
2019-02-02T01:58:16.419Z,9.17
2019-02-02T02:00:37.464Z,8.77
2019-02-02T02:03:03.912Z,7.90
2019-02-02T02:05:30.573Z,8.17
2019-02-02T02:07:58.621Z,8.83
2019-02-02T02:10:25.363Z,7.63
2019-02-02T02:12:51.780Z,8.07
2019-02-02T02:15:18.597Z,11.43
2019-02-02T02:17:45.044Z,9.13
2019-02-02T02:20:13.403Z,7.60
2019-02-02T02:22:41.242Z,9.30
2019-02-02T02:25:12.865Z,8.37
2019-02-02T02:27:39.279Z,8.30
2019-02-02T02:30:10.504Z,8.23
2019-02-02T02:32:36.951Z,8.93
2019-02-02T02:35:04.636Z,9.30
2019-02-02T02:37:31.080Z,7.67
2019-02-02T02:39:57.533Z,8.07
2019-02-02T02:42:23.940Z,7.97
2019-02-02T02:44:50.365Z,7.90
2019-02-02T02:47:16.908Z,7.20
2019-02-02T02:49:43.323Z,7.87
2019-02-02T02:52:09.771Z,7.53
2019-02-02T02:54:36.499Z,7.83
2019-02-02T02:57:03.240Z,8.07
2019-02-02T02:59:29.976Z,8.50
2019-02-02T03:01:56.395Z,8.67
2019-02-02T03:04:22.845Z,7.90
2019-02-02T03:06:49.271Z,8.13
2019-02-02T03:09:16.016Z,8.13
2019-02-02T03:11:42.755Z,7.50
2019-02-02T03:14:09.496Z,7.37
2019-02-02T03:16:35.944Z,7.27
2019-02-02T03:19:02.361Z,8.23
2019-02-02T03:21:29.098Z,7.70
2019-02-02T03:23:55.847Z,7.70
2019-02-02T03:26:22.251Z,6.80
2019-02-02T03:28:53.587Z,7.17
2019-02-02T03:31:17.025Z,6.80
2019-02-02T03:33:43.435Z,7.30
2019-02-02T03:36:09.935Z,7.40
2019-02-02T03:38:36.720Z,7.57
2019-02-02T03:41:03.422Z,6.93
2019-02-02T03:43:30.159Z,7.13
2019-02-02T03:45:56.903Z,7.50
2019-02-02T03:48:23.640Z,6.37
2019-02-02T03:50:50.063Z,7.67
2019-02-02T03:53:16.474Z,7.27
2019-02-02T03:55:44.819Z,7.30
2019-02-02T03:58:11.229Z,6.60
2019-02-02T04:00:37.692Z,6.60
2019-02-02T04:03:04.187Z,6.97
2019-02-02T04:05:30.922Z,7.60
2019-02-02T04:07:57.367Z,7.63
2019-02-02T04:10:23.810Z,7.17
2019-02-02T04:12:50.301Z,7.00
2019-02-02T04:15:17.152Z,7.27
2019-02-02T04:17:43.609Z,8.20
2019-02-02T04:20:17.303Z,7.97
2019-02-02T04:22:43.718Z,8.27
2019-02-02T04:25:10.467Z,8.30
2019-02-02T04:27:37.205Z,7.37
2019-02-02T04:30:05.519Z,8.80
2019-02-02T04:32:31.963Z,8.50
2019-02-02T04:34:58.380Z,7.43
2019-02-02T04:37:24.863Z,8.33
2019-02-02T04:39:51.275Z,8.27
2019-02-02T04:42:17.687Z,9.10
2019-02-02T04:44:44.381Z,8.33
2019-02-02T04:47:10.796Z,8.23
2019-02-02T04:49:37.244Z,7.57
2019-02-02T04:52:03.655Z,7.63
2019-02-02T04:54:30.072Z,8.30
2019-02-02T04:56:56.516Z,8.63
2019-02-02T04:59:29.361Z,8.13
2019-02-02T05:01:51.556Z,8.17
2019-02-02T05:04:18.034Z,8.30
2019-02-02T05:06:44.523Z,8.47
2019-02-02T05:09:10.943Z,7.93
2019-02-02T05:11:37.387Z,9.37
2019-02-02T05:14:03.799Z,8.70
2019-02-02T05:16:30.455Z,8.33
2019-02-02T05:18:56.899Z,8.30
2019-02-02T05:21:23.348Z,9.00
2019-02-02T05:23:50.060Z,8.53
2019-02-02T05:26:16.498Z,8.40
2019-02-02T05:28:43.019Z,8.00
2019-02-02T05:31:09.768Z,8.47
2019-02-02T05:33:36.184Z,9.00
2019-02-02T05:36:02.631Z,7.80
2019-02-02T05:38:29.080Z,8.03
2019-02-02T05:40:55.529Z,7.73
2019-02-02T05:43:21.939Z,8.60
2019-02-02T05:45:48.668Z,9.03
2019-02-02T05:48:15.083Z,7.97
2019-02-02T05:50:41.842Z,8.33
2019-02-02T05:53:08.289Z,8.70
2019-02-02T05:55:34.700Z,8.53
2019-02-02T05:58:01.439Z,8.33
2019-02-02T06:00:31.291Z,7.77
2019-02-02T06:02:57.703Z,7.17
2019-02-02T06:05:24.116Z,8.10
2019-02-02T06:07:50.876Z,7.50
2019-02-02T06:10:19.227Z,8.33
2019-02-02T06:12:45.975Z,7.60
2019-02-02T06:15:12.392Z,8.70
2019-02-02T06:17:38.841Z,7.87
2019-02-02T06:20:07.326Z,8.90
2019-02-02T06:22:33.744Z,7.83
2019-02-02T06:25:00.192Z,7.90
2019-02-02T06:27:26.720Z,7.73
2019-02-02T06:30:03.730Z,7.13
2019-02-02T06:32:21.732Z,7.97
2019-02-02T06:34:48.179Z,8.20
2019-02-02T06:37:14.592Z,7.17
2019-02-02T06:39:41.340Z,7.80
2019-02-02T06:42:07.793Z,8.27
2019-02-02T06:44:34.207Z,6.70
2019-02-02T06:47:01.292Z,7.97
2019-02-02T06:49:27.803Z,6.63
2019-02-02T06:51:54.520Z,8.03
2019-02-02T06:54:21.267Z,7.07
2019-02-02T06:56:47.679Z,8.03
2019-02-02T06:59:14.448Z,7.37
2019-02-02T07:01:40.897Z,7.13
2019-02-02T07:04:07.311Z,6.73
2019-02-02T07:06:33.755Z,7.27
2019-02-02T07:09:00.169Z,7.70
2019-02-02T07:11:26.579Z,7.60
2019-02-02T07:13:53.333Z,7.60
2019-02-02T07:16:19.748Z,7.53
2019-02-02T07:18:46.159Z,7.80
2019-02-02T07:21:12.938Z,7.07
2019-02-02T07:23:39.353Z,7.27
2019-02-02T07:26:06.107Z,6.63
2019-02-02T07:28:32.851Z,6.70
2019-02-02T07:30:59.585Z,7.20
2019-02-02T07:33:26.323Z,8.00
2019-02-02T07:35:54.238Z,7.07
2019-02-02T07:38:21.150Z,6.93
2019-02-02T07:40:47.616Z,7.00
2019-02-02T07:43:14.076Z,7.73
2019-02-02T07:45:40.483Z,7.87
2019-02-02T07:48:06.961Z,7.67
2019-02-02T07:50:33.703Z,7.47
2019-02-02T07:53:00.164Z,6.90
2019-02-02T07:55:26.592Z,6.97
2019-02-02T07:57:53.014Z,6.03
2019-02-02T08:00:21.689Z,6.03
2019-02-02T08:02:48.119Z,7.93
2019-02-02T08:05:14.889Z,7.00
2019-02-02T08:07:41.615Z,6.93
2019-02-02T08:10:09.931Z,7.23
2019-02-02T08:12:36.412Z,7.03
2019-02-02T08:15:04.996Z,7.10
2019-02-02T08:17:32.398Z,6.67
2019-02-02T08:19:59.647Z,7.07
2019-02-02T08:22:26.337Z,7.50
2019-02-02T08:24:52.813Z,7.73
2019-02-02T08:27:19.229Z,8.47
2019-02-02T08:29:45.639Z,8.83
2019-02-02T08:32:12.112Z,7.77
2019-02-02T08:34:38.524Z,7.67
2019-02-02T08:37:05.016Z,7.53
2019-02-02T08:39:31.484Z,7.37
2019-02-02T08:41:57.895Z,7.53
2019-02-02T08:44:24.364Z,7.43
2019-02-02T08:46:51.069Z,6.53
2019-02-02T08:49:17.479Z,6.40
2019-02-02T08:51:43.940Z,7.50
2019-02-02T08:54:10.689Z,5.80
2019-02-02T08:56:37.212Z,7.10
2019-02-02T08:59:04.667Z,6.30
2019-02-02T09:01:31.087Z,6.60
2019-02-02T09:03:57.505Z,7.23
2019-02-02T09:06:24.263Z,6.93
2019-02-02T09:08:50.713Z,7.20
2019-02-02T09:11:17.541Z,6.00
2019-02-02T09:13:44.282Z,6.40
2019-02-02T09:16:10.695Z,6.10
2019-02-02T09:18:37.447Z,6.97
2019-02-02T09:21:03.917Z,7.53
2019-02-02T09:23:30.328Z,6.73
2019-02-02T09:25:56.752Z,7.07
2019-02-02T09:28:23.219Z,6.60
2019-02-02T09:30:49.919Z,7.73
2019-02-02T09:33:16.366Z,10.00
2019-02-02T09:35:43.094Z,6.73
2019-02-02T09:38:12.047Z,7.80
2019-02-02T09:40:38.200Z,7.50
2019-02-02T09:43:04.610Z,7.03
2019-02-02T09:45:31.055Z,5.90
2019-02-02T09:47:57.468Z,6.83
2019-02-02T09:50:25.531Z,6.73
2019-02-02T09:52:52.024Z,6.80
2019-02-02T09:55:19.670Z,7.63
2019-02-02T09:57:46.881Z,6.83
2019-02-02T10:00:18.089Z,7.07
2019-02-02T10:02:46.137Z,6.73
2019-02-02T10:05:13.077Z,7.37
2019-02-02T10:07:39.546Z,6.80
2019-02-02T10:10:07.859Z,6.60
2019-02-02T10:12:34.271Z,6.73
2019-02-02T10:15:01.060Z,7.17
2019-02-02T10:17:27.796Z,7.00
2019-02-02T10:19:54.216Z,6.87
2019-02-02T10:22:20.769Z,7.50
2019-02-02T10:24:47.503Z,6.90
2019-02-02T10:27:13.984Z,7.20
2019-02-02T10:29:40.400Z,6.57
2019-02-02T10:32:06.811Z,7.37
2019-02-02T10:34:33.287Z,7.40
2019-02-02T10:36:59.704Z,7.03
2019-02-02T10:39:26.116Z,7.90
2019-02-02T10:41:52.657Z,7.90
2019-02-02T10:44:19.472Z,8.37
2019-02-02T10:46:46.321Z,8.17
2019-02-02T10:49:12.728Z,7.47
2019-02-02T10:51:39.483Z,8.00
2019-02-02T10:54:05.931Z,7.57
2019-02-02T10:56:32.343Z,7.70
2019-02-02T10:58:59.109Z,8.07
2019-02-02T11:01:25.828Z,7.70
2019-02-02T11:03:52.244Z,8.00
2019-02-02T11:06:18.660Z,7.10
2019-02-02T11:08:45.201Z,7.93
2019-02-02T11:11:12.145Z,8.17
2019-02-02T11:13:38.754Z,8.50
2019-02-02T11:16:08.478Z,7.77
2019-02-02T11:18:35.034Z,10.33
2019-02-02T11:21:02.206Z,7.70
2019-02-02T11:23:29.672Z,8.17
2019-02-02T11:25:57.252Z,7.60
2019-02-02T11:28:24.781Z,7.60
2019-02-02T11:30:52.304Z,8.23
2019-02-02T11:33:19.447Z,7.70
2019-02-02T11:35:45.864Z,8.07
2019-02-02T11:38:12.276Z,7.90
2019-02-02T11:40:39.083Z,8.30
2019-02-02T11:43:05.610Z,8.23
2019-02-02T11:45:32.360Z,7.83
2019-02-02T11:47:58.773Z,7.83
2019-02-02T11:50:25.286Z,8.07
2019-02-02T11:52:52.069Z,8.03
2019-02-02T11:55:20.241Z,8.63
2019-02-02T11:57:49.895Z,8.70
2019-02-02T12:00:16.912Z,8.03
2019-02-02T12:02:49.515Z,8.20
2019-02-02T12:05:12.856Z,7.33
2019-02-02T12:07:39.471Z,8.10
2019-02-02T12:10:08.046Z,7.57
2019-02-02T12:12:34.787Z,7.47
2019-02-02T12:15:01.254Z,7.93
2019-02-02T12:17:27.963Z,8.70
2019-02-02T12:19:54.700Z,8.23
2019-02-02T12:22:21.120Z,8.00
2019-02-02T12:24:47.873Z,7.10
2019-02-02T12:27:14.287Z,8.10
2019-02-02T12:29:41.640Z,8.40
2019-02-02T12:32:08.107Z,7.60
2019-02-02T12:34:34.525Z,8.10
2019-02-02T12:37:01.259Z,8.17
2019-02-02T12:39:27.999Z,8.43
2019-02-02T12:41:54.739Z,9.23
2019-02-02T12:44:21.281Z,7.70
2019-02-02T12:46:47.696Z,6.93
2019-02-02T12:49:14.453Z,8.87
2019-02-02T12:51:41.164Z,7.57
2019-02-02T12:54:07.581Z,7.60
2019-02-02T12:56:34.462Z,8.23
2019-02-02T12:59:01.167Z,8.53
2019-02-02T13:01:27.835Z,7.13
2019-02-02T13:04:01.303Z,7.13
2019-02-02T13:06:22.725Z,6.73
2019-02-02T13:08:49.141Z,7.70
2019-02-02T13:11:15.547Z,8.20
2019-02-02T13:13:42.723Z,7.70
2019-02-02T13:16:10.207Z,7.60
2019-02-02T13:18:36.675Z,8.00
2019-02-02T13:21:03.090Z,7.80
2019-02-02T13:23:29.539Z,7.30
2019-02-02T13:26:05.082Z,7.17
2019-02-02T13:28:24.837Z,7.03
2019-02-02T13:30:51.293Z,7.00
2019-02-02T13:33:17.703Z,8.17
2019-02-02T13:35:45.314Z,6.73
2019-02-02T13:38:12.114Z,6.77
2019-02-02T13:40:38.543Z,7.50
2019-02-02T13:43:05.282Z,6.27
2019-02-02T13:45:31.822Z,6.80
2019-02-02T13:47:58.651Z,7.40
2019-02-02T13:50:25.402Z,7.20
2019-02-02T13:52:51.845Z,6.27
2019-02-02T13:55:18.255Z,6.07
2019-02-02T13:57:44.708Z,6.83
2019-02-02T14:00:13.025Z,6.07
2019-02-02T14:02:39.483Z,6.17
2019-02-02T14:05:07.805Z,6.60
2019-02-02T14:07:34.507Z,5.97
2019-02-02T14:10:00.960Z,6.73
2019-02-02T14:12:27.377Z,6.00
2019-02-02T14:14:53.786Z,6.30
2019-02-02T14:17:20.257Z,6.10
2019-02-02T14:19:46.678Z,5.83
2019-02-02T14:22:13.086Z,6.37
2019-02-02T14:24:39.551Z,6.50
2019-02-02T14:27:05.981Z,5.70
2019-02-02T14:29:32.486Z,6.30
2019-02-02T14:31:59.245Z,5.83
2019-02-02T14:34:25.984Z,5.67
2019-02-02T14:36:52.719Z,5.63
2019-02-02T14:39:19.196Z,4.97
2019-02-02T14:41:45.613Z,5.53
2019-02-02T14:44:12.085Z,5.50
2019-02-02T14:46:38.555Z,5.43
2019-02-02T14:49:05.287Z,5.73
2019-02-02T14:51:31.760Z,5.43
2019-02-02T14:53:58.171Z,5.70
2019-02-02T14:56:24.636Z,5.73
2019-02-02T14:58:51.433Z,5.00
2019-02-02T15:01:17.848Z,4.50
2019-02-02T15:03:44.604Z,4.97
2019-02-02T15:06:11.081Z,4.90
2019-02-02T15:08:37.773Z,5.37
2019-02-02T15:11:04.188Z,5.37
2019-02-02T15:13:30.656Z,4.57
2019-02-02T15:15:57.074Z,5.60
2019-02-02T15:18:23.524Z,5.17
2019-02-02T15:20:50.238Z,4.80
2019-02-02T15:23:16.980Z,5.33
2019-02-02T15:25:43.440Z,4.80
2019-02-02T15:28:09.851Z,5.30
2019-02-02T15:30:36.268Z,4.90
2019-02-02T15:33:04.243Z,5.17
2019-02-02T15:35:30.984Z,5.43
2019-02-02T15:37:57.399Z,5.10
2019-02-02T15:40:23.871Z,4.63
2019-02-02T15:42:50.280Z,5.17
2019-02-02T15:45:18.356Z,5.80
2019-02-02T15:47:44.889Z,5.40
2019-02-02T15:50:13.209Z,5.30
2019-02-02T15:52:39.675Z,5.90
2019-02-02T15:55:07.998Z,6.83
2019-02-02T15:57:34.412Z,7.70
2019-02-02T16:00:00.895Z,7.20
2019-02-02T16:02:27.304Z,8.77
2019-02-02T16:04:53.774Z,8.50
2019-02-02T16:07:20.439Z,9.20
2019-02-02T16:09:46.852Z,8.70
2019-02-02T16:12:13.323Z,9.00
2019-02-02T16:14:39.731Z,9.20
2019-02-02T16:17:06.143Z,8.97
2019-02-02T16:19:32.611Z,9.20
2019-02-02T16:21:59.341Z,9.07
2019-02-02T16:24:25.755Z,8.80
2019-02-02T16:26:52.219Z,8.53
2019-02-02T16:29:18.632Z,9.40
2019-02-02T16:31:45.306Z,9.00
2019-02-02T16:34:11.777Z,9.03
2019-02-02T16:36:38.191Z,8.03
2019-02-02T16:39:05.843Z,8.33
2019-02-02T16:41:32.266Z,8.60
2019-02-02T16:43:58.676Z,7.97
2019-02-02T16:46:25.403Z,8.87
2019-02-02T16:48:51.855Z,9.60
2019-02-02T16:51:18.277Z,15.33
2019-02-02T16:53:44.755Z,20.33
2019-02-02T16:56:11.440Z,11.43
2019-02-02T16:58:37.914Z,11.53
2019-02-02T17:01:04.336Z,10.33
2019-02-02T17:03:30.994Z,18.40
2019-02-02T17:05:57.780Z,14.20
2019-02-02T17:08:24.195Z,15.10
2019-02-02T17:10:50.851Z,18.80
2019-02-02T17:13:17.586Z,11.43
2019-02-02T17:15:44.010Z,12.90
2019-02-02T17:18:10.427Z,10.80
2019-02-02T17:20:38.304Z,12.57
2019-02-02T17:23:05.059Z,14.30
2019-02-02T17:25:31.523Z,10.07
2019-02-02T17:27:57.993Z,16.50
2019-02-02T17:30:25.103Z,10.70
2019-02-02T17:32:52.516Z,11.37
2019-02-02T17:35:18.988Z,10.13
2019-02-02T17:37:45.396Z,9.37
2019-02-02T17:40:25.548Z,9.30
2019-02-02T17:42:52.023Z,8.67
2019-02-02T17:45:20.355Z,10.47
2019-02-02T17:47:46.873Z,10.27
2019-02-02T17:50:14.980Z,12.20
2019-02-02T17:52:41.391Z,10.83
2019-02-02T17:55:08.919Z,8.40
2019-02-02T17:57:35.372Z,8.17
2019-02-02T18:00:02.802Z,8.33
2019-02-02T18:02:29.207Z,9.40
2019-02-02T18:04:55.667Z,8.80
2019-02-02T18:07:22.086Z,8.13
2019-02-02T18:09:48.779Z,7.70
2019-02-02T18:12:15.223Z,8.77
2019-02-02T18:14:41.948Z,9.83
2019-02-02T18:17:08.651Z,8.90
2019-02-02T18:19:35.343Z,8.00
2019-02-02T18:22:01.767Z,8.20
2019-02-02T18:24:28.203Z,8.97
2019-02-02T18:26:54.927Z,13.37
2019-02-02T18:29:21.667Z,9.70
2019-02-02T18:31:48.410Z,9.13
2019-02-02T18:34:15.148Z,8.77
2019-02-02T18:36:41.595Z,8.90
2019-02-02T18:39:08.315Z,8.23
2019-02-02T18:41:35.056Z,7.47
2019-02-02T18:44:01.467Z,8.90
2019-02-02T18:46:27.917Z,7.93
2019-02-02T18:48:54.340Z,7.17
2019-02-02T18:51:21.191Z,7.13
2019-02-02T18:53:47.603Z,7.50
2019-02-02T18:56:14.021Z,7.37
2019-02-02T18:58:40.478Z,7.40
2019-02-02T19:01:06.940Z,6.90
2019-02-02T19:03:33.768Z,7.43
2019-02-02T19:06:00.193Z,6.80
2019-02-02T19:08:26.936Z,9.97
2019-02-02T19:10:53.364Z,6.93
2019-02-02T19:13:19.775Z,9.30
2019-02-02T19:15:46.219Z,6.77
2019-02-02T19:18:12.645Z,6.13
2019-02-02T19:20:39.991Z,6.90
2019-02-02T19:23:06.404Z,6.93
2019-02-02T19:25:33.095Z,7.70
2019-02-02T19:27:59.510Z,5.90
2019-02-02T19:30:30.333Z,6.53
2019-02-02T19:32:56.784Z,6.63
2019-02-02T19:35:23.211Z,5.97
2019-02-02T19:37:49.961Z,6.00
2019-02-02T19:40:16.411Z,6.73
2019-02-02T19:42:43.023Z,6.53
2019-02-02T19:45:14.035Z,6.17
2019-02-02T19:47:40.504Z,7.03
2019-02-02T19:50:09.087Z,6.37
2019-02-02T19:52:35.827Z,10.60
2019-02-02T19:55:14.026Z,6.07
2019-02-02T19:57:31.031Z,6.70
2019-02-02T19:59:57.524Z,6.73
2019-02-02T20:02:23.936Z,5.80
2019-02-02T20:04:50.647Z,6.03
2019-02-02T20:07:17.072Z,6.87
2019-02-02T20:09:43.816Z,6.80
2019-02-02T20:12:10.555Z,6.77
2019-02-02T20:14:36.972Z,5.50
2019-02-02T20:17:03.390Z,6.60
2019-02-02T20:19:29.852Z,6.10
2019-02-02T20:21:56.267Z,6.33
2019-02-02T20:24:22.671Z,6.60
2019-02-02T20:26:49.464Z,6.17
2019-02-02T20:29:15.884Z,6.07
2019-02-02T20:31:42.317Z,6.27
2019-02-02T20:34:08.755Z,6.87
2019-02-02T20:36:35.174Z,5.93
2019-02-02T20:39:01.636Z,6.30
2019-02-02T20:41:28.055Z,6.73
2019-02-02T20:43:54.471Z,5.70
2019-02-02T20:46:22.144Z,6.60
2019-02-02T20:48:48.884Z,6.87
2019-02-02T20:51:15.297Z,5.80
2019-02-02T20:53:41.875Z,6.30
2019-02-02T20:56:08.587Z,7.00
2019-02-02T20:58:35.328Z,6.53
2019-02-02T21:01:01.740Z,6.57
2019-02-02T21:03:28.456Z,7.27
2019-02-02T21:05:54.907Z,6.10
2019-02-02T21:08:21.568Z,5.70
2019-02-02T21:10:47.979Z,6.37
2019-02-02T21:13:14.740Z,6.80
2019-02-02T21:15:41.479Z,7.03
2019-02-02T21:18:08.220Z,7.13
2019-02-02T21:20:34.842Z,6.90
2019-02-02T21:23:01.283Z,6.70
2019-02-02T21:25:27.701Z,6.30
2019-02-02T21:27:54.115Z,6.47
2019-02-02T21:30:22.269Z,7.03
2019-02-02T21:32:48.964Z,6.10
2019-02-02T21:35:15.713Z,7.47
2019-02-02T21:37:42.149Z,6.13
2019-02-02T21:40:10.367Z,6.80
2019-02-02T21:42:37.151Z,6.93
2019-02-02T21:45:05.505Z,5.77
2019-02-02T21:47:31.915Z,6.00
2019-02-02T21:49:58.363Z,7.37
2019-02-02T21:52:25.178Z,6.83
2019-02-02T21:54:51.615Z,7.50
2019-02-02T21:57:18.064Z,6.40
2019-02-02T21:59:44.740Z,7.60
2019-02-02T22:02:11.154Z,6.57
2019-02-02T22:04:37.907Z,8.07
2019-02-02T22:07:04.359Z,7.53
2019-02-02T22:09:31.592Z,8.77
2019-02-02T22:11:58.006Z,7.10
2019-02-02T22:14:24.764Z,7.00
2019-02-02T22:16:51.211Z,7.70
2019-02-02T22:19:17.632Z,7.33
2019-02-02T22:21:44.054Z,6.90
2019-02-02T22:24:10.506Z,6.60
2019-02-02T22:26:36.915Z,6.43
2019-02-02T22:29:03.327Z,7.00
2019-02-02T22:31:29.785Z,6.90
2019-02-02T22:33:56.528Z,7.83
2019-02-02T22:36:27.577Z,7.87
2019-02-02T22:38:51.300Z,7.90
2019-02-02T22:41:18.920Z,7.83
2019-02-02T22:43:45.368Z,7.70
2019-02-02T22:46:11.784Z,8.03
2019-02-02T22:48:38.201Z,8.07
2019-02-02T22:51:04.936Z,7.17
2019-02-02T22:53:31.348Z,9.00
2019-02-02T22:55:58.124Z,8.13
2019-02-02T22:58:25.335Z,7.47
2019-02-02T23:00:55.580Z,8.43
2019-02-02T23:03:26.713Z,8.50
2019-02-02T23:05:55.029Z,7.87
2019-02-02T23:08:40.120Z,8.30
2019-02-02T23:11:09.976Z,9.43
2019-02-02T23:13:44.393Z,7.30
2019-02-02T23:16:24.210Z,8.97
2019-02-02T23:18:51.137Z,8.13
2019-02-02T23:21:17.543Z,7.57
2019-02-02T23:23:43.955Z,8.37
2019-02-02T23:26:10.403Z,8.37
2019-02-02T23:28:36.815Z,7.73
2019-02-02T23:31:03.245Z,8.47
2019-02-02T23:33:29.783Z,8.13
2019-02-02T23:35:56.501Z,7.93
2019-02-02T23:38:23.011Z,7.13
2019-02-02T23:40:49.460Z,7.27
2019-02-02T23:43:15.914Z,8.83
2019-02-02T23:45:42.655Z,8.43
2019-02-02T23:48:09.118Z,7.53
2019-02-02T23:50:36.036Z,7.40
2019-02-02T23:53:03.048Z,7.17
2019-02-02T23:55:29.531Z,8.00
2019-02-02T23:57:56.256Z,7.23
